Pagrindinis puslapis
METAR-TAF:

METAR-TAF

Oro uostai :

Noorvik, Aliaska, Jungtinės Amerikos Valstijos

platuma: 66-49-03N, ilguma: 161-01-20W, Aukštis: 17 m

Dabartinis oras

Ataskaita buvo paskelbta 1 valandą ir 0 minutes, ne 22:56 UTC
Ramus vėjas
Temperatūra -11°C
Drėgmė 43%
Slėgis 1024 hPa
Matomumas: 12.9 km
Giedras dangus

METAR: PFNO 282256Z AUTO 00000KT 8SM CLR M11/M21 A3023 RMK AO2 SLP323 T11061206 FZRANO

Laikas: 15:56 (23:56 UTC)


TAF: trūkstamas

Orai ataskaitas ir orų prognozės (METAR, TAF).

turimą stotys yra geltonos ir raudonos taškus žemėlapyje.

Perkelti pele per norėdami pamatyti stoties vardą.

Tada spustelėkite, norėdami matyti oro stebėjimo ir prognozės.

Norėdami pakeisti žemėlapį: spustelėkite ant žalios mygtukų su juodo kryžiaus žemyn,; žalią mygtuką su brūkšneliu, jei norite nutolinti; arba žalių rodyklių gretimoms žemėlapius.


METAR-TAF: